createdAt,value
2023-01-01T00:00:59.547Z,13.53
2023-01-01T00:04:01.608Z,13.42
2023-01-01T00:07:04.778Z,13.37
2023-01-01T00:10:25.993Z,13.18
2023-01-01T00:13:27.802Z,13.45
2023-01-01T00:16:29.639Z,13.37
2023-01-01T00:19:31.441Z,13.44
2023-01-01T00:22:53.886Z,13.60
2023-01-01T00:25:56.730Z,13.67
2023-01-01T00:28:58.573Z,13.59
2023-01-01T00:32:00.344Z,13.56
2023-01-01T00:35:02.133Z,13.49
2023-01-01T00:38:05.302Z,13.55
2023-01-01T00:41:07.000Z,13.54
2023-01-01T00:44:08.730Z,13.57
2023-01-01T00:47:10.488Z,13.60
2023-01-01T00:50:12.244Z,13.54
2023-01-01T00:53:15.509Z,13.55
2023-01-01T00:56:17.311Z,13.59
2023-01-01T00:59:21.531Z,13.67
2023-01-01T01:02:26.053Z,13.62
2023-01-01T01:05:27.988Z,13.67
2023-01-01T01:08:33.016Z,13.68
2023-01-01T01:11:34.811Z,13.67
2023-01-01T01:14:36.491Z,13.65
2023-01-01T01:17:38.417Z,13.67
2023-01-01T01:20:40.202Z,13.67
2023-01-01T01:23:43.881Z,13.79
2023-01-01T01:26:45.751Z,13.76
2023-01-01T01:29:47.624Z,13.71
2023-01-01T01:32:49.602Z,13.82
2023-01-01T01:35:54.967Z,13.80
2023-01-01T01:38:58.573Z,13.77
2023-01-01T01:42:02.454Z,13.78
2023-01-01T01:45:06.790Z,13.64
2023-01-01T01:48:09.605Z,13.64
2023-01-01T01:51:14.477Z,13.56
2023-01-01T01:54:20.780Z,13.60
2023-01-01T01:57:23.699Z,13.53
2023-01-01T02:00:26.115Z,13.49
2023-01-01T02:03:33.925Z,13.59
2023-01-01T02:06:36.819Z,13.65
2023-01-01T02:09:40.424Z,13.59
2023-01-01T02:12:42.360Z,13.64
2023-01-01T02:15:52.519Z,13.56
2023-01-01T02:18:59.994Z,13.60
2023-01-01T02:22:10.957Z,13.65
2023-01-01T02:25:23.176Z,13.48
2023-01-01T02:28:45.444Z,13.47
2023-01-01T02:31:50.880Z,13.25
2023-01-01T02:34:59.989Z,13.61
2023-01-01T02:38:07.829Z,13.45
2023-01-01T02:41:12.913Z,13.42
2023-01-01T02:44:16.996Z,13.33
2023-01-01T02:47:21.638Z,13.48
2023-01-01T02:50:25.665Z,13.49
2023-01-01T02:53:32.366Z,13.29
2023-01-01T02:56:42.777Z,13.32
2023-01-01T03:00:19.040Z,13.39
2023-01-01T03:03:28.696Z,13.37
2023-01-01T03:06:38.535Z,13.21
2023-01-01T03:09:46.953Z,13.20
2023-01-01T03:12:56.913Z,13.38
2023-01-01T03:16:06.070Z,13.28
2023-01-01T03:19:12.052Z,13.27
2023-01-01T03:22:17.229Z,13.32
2023-01-01T03:25:23.141Z,13.30
2023-01-01T03:28:28.731Z,13.16
2023-01-01T03:31:33.492Z,13.17
2023-01-01T03:34:40.373Z,13.19
2023-01-01T03:37:44.452Z,13.37
2023-01-01T03:40:48.834Z,13.12
2023-01-01T03:43:54.396Z,13.25
2023-01-01T03:46:58.485Z,13.36
2023-01-01T03:50:02.229Z,13.14
2023-01-01T03:53:10.064Z,13.47
2023-01-01T03:56:19.602Z,13.46
2023-01-01T03:59:26.897Z,13.41
2023-01-01T04:02:37.168Z,13.33
2023-01-01T04:05:41.566Z,13.64
2023-01-01T04:08:43.423Z,13.58
2023-01-01T04:12:04.096Z,13.50
2023-01-01T04:15:06.702Z,13.31
2023-01-01T04:18:09.796Z,13.55
2023-01-01T04:21:12.689Z,13.53
2023-01-01T04:24:14.984Z,13.49
2023-01-01T04:27:16.752Z,13.58
2023-01-01T04:30:19.175Z,13.43
2023-01-01T04:33:22.198Z,13.43
2023-01-01T04:36:23.897Z,13.49
2023-01-01T04:39:25.537Z,13.44
2023-01-01T04:42:27.221Z,13.51
2023-01-01T04:45:29.020Z,13.56
2023-01-01T04:48:32.659Z,13.57
2023-01-01T04:51:34.425Z,13.59
2023-01-01T04:54:36.243Z,13.48
2023-01-01T04:57:38.047Z,13.48
2023-01-01T05:00:40.027Z,13.41
2023-01-01T05:03:43.223Z,13.45
2023-01-01T05:06:44.901Z,13.53
2023-01-01T05:09:46.703Z,13.56
2023-01-01T05:12:48.509Z,13.41
2023-01-01T05:15:50.164Z,13.40
2023-01-01T05:18:53.874Z,13.39
2023-01-01T05:21:55.758Z,13.40
2023-01-01T05:24:57.499Z,13.32
2023-01-01T05:28:00.005Z,13.46
2023-01-01T05:31:05.641Z,13.26
2023-01-01T05:37:09.286Z,13.28
2023-01-01T05:40:11.870Z,13.16
2023-01-01T05:43:13.589Z,13.34
2023-01-01T05:46:17.348Z,13.31
2023-01-01T05:49:20.408Z,13.08
2023-01-01T05:52:26.523Z,13.06
2023-01-01T05:55:29.088Z,13.16
2023-01-01T05:58:32.257Z,12.97
2023-01-01T06:01:38.755Z,12.92
2023-01-01T06:04:46.394Z,13.01
2023-01-01T06:07:48.841Z,12.88
2023-01-01T06:10:58.428Z,12.92
2023-01-01T06:14:01.147Z,12.93
2023-01-01T06:17:03.026Z,12.87
2023-01-01T06:20:06.972Z,12.77
2023-01-01T06:23:08.662Z,12.77
2023-01-01T06:26:12.376Z,12.82
2023-01-01T06:29:14.083Z,12.66
2023-01-01T06:32:15.878Z,12.55
2023-01-01T06:35:18.892Z,12.72
2023-01-01T06:38:21.668Z,12.45
2023-01-01T06:41:25.510Z,12.55
2023-01-01T06:44:27.171Z,12.45
2023-01-01T06:47:28.866Z,12.67
2023-01-01T06:50:31.941Z,12.55
2023-01-01T06:53:33.608Z,12.46
2023-01-01T06:56:35.846Z,12.30
2023-01-01T06:59:38.422Z,12.32
2023-01-01T07:02:40.311Z,12.62
2023-01-01T07:05:43.551Z,12.36
2023-01-01T07:08:45.222Z,12.43
2023-01-01T07:11:46.948Z,12.35
2023-01-01T07:14:48.692Z,12.42
2023-01-01T07:17:50.402Z,12.54
2023-01-01T07:20:55.744Z,12.65
2023-01-01T07:23:58.362Z,12.55
2023-01-01T07:27:00.022Z,12.58
2023-01-01T07:30:02.083Z,12.45
2023-01-01T07:33:03.924Z,12.45
2023-01-01T07:36:08.718Z,12.63
2023-01-01T07:39:10.393Z,12.59
2023-01-01T07:42:11.999Z,12.63
2023-01-01T07:45:14.018Z,12.58
2023-01-01T07:48:16.440Z,12.57
2023-01-01T07:51:19.702Z,12.56
2023-01-01T07:54:21.457Z,12.64
2023-01-01T07:57:23.068Z,12.61
2023-01-01T08:00:24.836Z,12.65
2023-01-01T08:03:26.740Z,12.55
2023-01-01T08:06:29.934Z,12.57
2023-01-01T08:09:31.745Z,12.66
2023-01-01T08:12:33.721Z,12.78
2023-01-01T08:15:36.095Z,12.65
2023-01-01T08:18:38.230Z,12.70
2023-01-01T08:21:41.297Z,12.78
2023-01-01T08:24:43.022Z,12.75
2023-01-01T08:27:44.727Z,12.64
2023-01-01T08:30:46.864Z,12.68
2023-01-01T08:33:48.604Z,12.74
2023-01-01T08:36:51.673Z,12.78
2023-01-01T08:39:53.735Z,12.75
2023-01-01T08:42:55.525Z,12.72
2023-01-01T08:45:57.222Z,12.79
2023-01-01T08:48:58.982Z,12.88
2023-01-01T08:52:02.050Z,12.93
2023-01-01T08:55:04.157Z,12.96
2023-01-01T08:58:06.770Z,13.01
2023-01-01T09:01:10.158Z,13.03
2023-01-01T09:04:15.705Z,13.17
2023-01-01T09:07:19.164Z,13.18
2023-01-01T09:10:20.947Z,13.23
2023-01-01T09:13:22.741Z,13.23
2023-01-01T09:16:24.798Z,13.21
2023-01-01T09:19:27.282Z,13.37
2023-01-01T09:22:30.323Z,13.41
2023-01-01T09:25:32.511Z,13.46
2023-01-01T09:28:34.568Z,13.56
2023-01-01T09:31:36.478Z,13.57
2023-01-01T09:34:38.345Z,13.71
2023-01-01T09:37:41.418Z,13.85
2023-01-01T09:40:55.077Z,13.97
2023-01-01T09:44:06.614Z,13.94
2023-01-01T09:47:21.110Z,13.99
2023-01-01T09:50:25.450Z,13.95
2023-01-01T09:53:32.792Z,13.89
2023-01-01T09:56:36.450Z,13.83
2023-01-01T09:59:38.415Z,13.90
2023-01-01T10:02:53.600Z,14.00
2023-01-01T10:06:03.552Z,14.08
2023-01-01T10:09:20.589Z,14.19
2023-01-01T10:12:28.737Z,14.25
2023-01-01T10:15:36.207Z,14.28
2023-01-01T10:18:40.349Z,14.34
2023-01-01T10:21:47.262Z,14.37
2023-01-01T10:24:56.296Z,14.31
2023-01-01T10:28:00.445Z,14.35
2023-01-01T10:31:15.323Z,14.38
2023-01-01T10:34:20.270Z,14.43
2023-01-01T10:37:22.563Z,14.64
2023-01-01T10:40:27.979Z,14.91
2023-01-01T10:43:29.684Z,15.02
2023-01-01T10:46:32.282Z,15.14
2023-01-01T10:49:34.371Z,15.15
2023-01-01T10:52:38.582Z,15.13
2023-01-01T10:55:41.867Z,15.15
2023-01-01T10:58:45.396Z,15.26
2023-01-01T11:01:47.211Z,15.28
2023-01-01T11:04:50.383Z,15.27
2023-01-01T11:07:52.308Z,15.36
2023-01-01T11:10:57.595Z,15.40
2023-01-01T11:14:04.475Z,15.40
2023-01-01T11:17:07.185Z,15.50
2023-01-01T11:20:18.695Z,15.49
2023-01-01T11:23:30.107Z,15.43
2023-01-01T11:26:34.405Z,15.28
2023-01-01T11:29:36.179Z,15.17
2023-01-01T11:32:39.205Z,15.08
2023-01-01T11:35:49.718Z,15.00
2023-01-01T11:39:05.868Z,14.93
2023-01-01T11:42:09.004Z,14.82
2023-01-01T11:45:18.873Z,14.79
2023-01-01T11:48:25.927Z,14.80
2023-01-01T11:51:30.694Z,14.81
2023-01-01T11:54:36.319Z,14.83
2023-01-01T11:57:44.001Z,14.94
2023-01-01T12:00:47.622Z,15.03
2023-01-01T12:03:54.177Z,15.07
2023-01-01T12:07:00.078Z,15.12
2023-01-01T12:10:06.677Z,15.10
2023-01-01T12:13:17.495Z,15.06
2023-01-01T12:16:26.466Z,15.10
2023-01-01T12:19:33.544Z,15.08
2023-01-01T12:22:35.630Z,15.08
2023-01-01T12:25:41.469Z,14.99
2023-01-01T12:29:06.853Z,14.97
2023-01-01T12:32:17.521Z,14.92
2023-01-01T12:35:32.712Z,14.84
2023-01-01T12:39:07.302Z,14.80
2023-01-01T12:42:17.469Z,14.75
2023-01-01T12:46:00.360Z,14.76
2023-01-01T12:49:30.412Z,14.67
2023-01-01T12:52:44.142Z,14.67
2023-01-01T12:56:23.170Z,14.64
2023-01-01T12:59:30.262Z,14.67
2023-01-01T13:02:48.009Z,14.69
2023-01-01T13:05:53.387Z,14.76
2023-01-01T13:08:59.691Z,14.69
2023-01-01T13:12:05.688Z,14.76
2023-01-01T13:15:41.532Z,14.75
2023-01-01T13:18:49.460Z,14.83
2023-01-01T13:21:51.256Z,14.81
2023-01-01T13:25:05.259Z,14.81
2023-01-01T13:28:13.571Z,14.82
2023-01-01T13:31:15.275Z,14.78
2023-01-01T13:34:37.671Z,14.78
2023-01-01T13:37:45.723Z,14.73
2023-01-01T13:40:51.327Z,14.72
2023-01-01T13:43:54.713Z,14.65
2023-01-01T13:47:11.637Z,14.67
2023-01-01T13:50:20.631Z,14.68
2023-01-01T13:53:51.881Z,14.61
2023-01-01T13:56:58.554Z,14.59
2023-01-01T14:00:17.836Z,14.40
2023-01-01T14:03:20.767Z,14.51
2023-01-01T14:06:29.889Z,14.44
2023-01-01T14:09:31.652Z,14.48
2023-01-01T14:12:38.446Z,14.50
2023-01-01T14:15:46.706Z,14.46
2023-01-01T14:18:50.674Z,14.31
2023-01-01T14:21:54.597Z,14.24
2023-01-01T14:24:56.692Z,14.42
2023-01-01T14:27:59.103Z,14.48
2023-01-01T14:31:10.663Z,14.37
2023-01-01T14:34:14.699Z,14.61
2023-01-01T14:37:24.497Z,14.50
2023-01-01T14:40:30.202Z,14.47
2023-01-01T14:43:32.008Z,14.44
2023-01-01T14:46:39.629Z,14.35
2023-01-01T14:49:42.644Z,14.48
2023-01-01T14:52:50.406Z,14.46
2023-01-01T14:55:52.143Z,14.22
2023-01-01T14:58:56.061Z,14.10
2023-01-01T15:02:02.272Z,14.08
2023-01-01T15:05:31.433Z,13.96
2023-01-01T15:08:37.672Z,14.01
2023-01-01T15:11:39.523Z,14.04
2023-01-01T15:14:45.479Z,14.05
2023-01-01T15:17:47.671Z,14.09
2023-01-01T15:20:53.762Z,13.96
2023-01-01T15:24:01.722Z,14.06
2023-01-01T15:27:06.572Z,14.16
2023-01-01T15:30:23.669Z,14.13
2023-01-01T15:33:25.747Z,14.05
2023-01-01T15:36:27.520Z,14.14
2023-01-01T15:39:31.952Z,14.21
2023-01-01T15:42:35.663Z,14.19
2023-01-01T15:45:39.208Z,14.40
2023-01-01T15:48:48.117Z,14.38
2023-01-01T15:51:49.914Z,14.49
2023-01-01T15:54:53.438Z,14.30
2023-01-01T15:57:55.664Z,14.50
2023-01-01T16:01:00.625Z,14.31
2023-01-01T16:04:08.930Z,14.29
2023-01-01T16:07:15.983Z,14.40
2023-01-01T16:10:19.086Z,14.34
2023-01-01T16:13:20.836Z,14.43
2023-01-01T16:16:28.885Z,14.65
2023-01-01T16:19:31.657Z,14.46
2023-01-01T16:22:36.569Z,14.57
2023-01-01T16:25:40.047Z,14.42
2023-01-01T16:28:41.779Z,14.33
2023-01-01T16:31:44.736Z,14.33
2023-01-01T16:34:46.470Z,14.48
2023-01-01T16:37:48.218Z,14.40
2023-01-01T16:40:52.616Z,14.53
2023-01-01T16:43:54.433Z,14.75
2023-01-01T16:46:56.131Z,14.58
2023-01-01T16:49:58.132Z,14.60
2023-01-01T16:52:59.846Z,14.79
2023-01-01T16:56:02.950Z,14.88
2023-01-01T16:59:04.658Z,14.46
2023-01-01T17:02:06.613Z,14.60
2023-01-01T17:05:09.642Z,14.81
2023-01-01T17:08:11.885Z,14.72
2023-01-01T17:11:16.963Z,14.79
2023-01-01T17:14:19.042Z,14.47
2023-01-01T17:17:20.720Z,14.34
2023-01-01T17:20:23.036Z,14.31
2023-01-01T17:23:25.069Z,14.32
2023-01-01T17:26:28.243Z,14.26
2023-01-01T17:29:30.025Z,14.09
2023-01-01T17:32:34.520Z,14.09
2023-01-01T17:35:37.423Z,14.46
2023-01-01T17:38:39.588Z,14.45
2023-01-01T17:41:43.708Z,14.26
2023-01-01T17:44:45.637Z,14.33
2023-01-01T17:47:47.404Z,14.21
2023-01-01T17:50:49.106Z,13.96
2023-01-01T17:53:51.051Z,14.10
2023-01-01T17:56:54.258Z,14.05
2023-01-01T17:59:58.928Z,14.10
2023-01-01T18:03:00.536Z,14.55
2023-01-01T18:06:02.788Z,14.74
2023-01-01T18:09:06.797Z,14.83
2023-01-01T18:12:09.984Z,14.92
2023-01-01T18:15:12.126Z,15.06
2023-01-01T18:18:14.871Z,15.37
2023-01-01T18:21:20.719Z,15.30
2023-01-01T18:24:22.463Z,15.25
2023-01-01T18:27:25.698Z,15.27
2023-01-01T18:30:27.516Z,15.51
2023-01-01T18:33:29.189Z,15.51
2023-01-01T18:36:33.168Z,15.35
2023-01-01T18:39:35.629Z,15.56
2023-01-01T18:42:45.722Z,15.90
2023-01-01T18:45:47.588Z,15.52
2023-01-01T18:48:52.680Z,15.42
2023-01-01T18:52:06.498Z,15.63
2023-01-01T18:55:13.541Z,15.65
2023-01-01T18:58:18.745Z,15.40
2023-01-01T19:01:23.571Z,15.15
2023-01-01T19:04:25.263Z,14.73
2023-01-01T19:07:27.115Z,14.67
2023-01-01T19:10:34.287Z,14.57
2023-01-01T19:13:40.443Z,14.38
2023-01-01T19:16:42.675Z,14.33
2023-01-01T19:19:44.540Z,14.07
2023-01-01T19:22:48.233Z,13.77
2023-01-01T19:25:51.148Z,13.62
2023-01-01T19:28:55.775Z,13.59
2023-01-01T19:31:58.486Z,13.61
2023-01-01T19:35:00.262Z,13.58
2023-01-01T19:38:02.112Z,13.43
2023-01-01T19:41:03.891Z,13.26
2023-01-01T19:44:10.285Z,13.02
2023-01-01T19:47:13.698Z,12.93
2023-01-01T19:50:15.721Z,12.75
2023-01-01T19:53:17.448Z,12.84
2023-01-01T19:56:19.303Z,12.69
2023-01-01T19:59:26.355Z,12.59
2023-01-01T20:02:46.041Z,12.52
2023-01-01T20:05:49.735Z,12.60
2023-01-01T20:08:51.808Z,12.63
2023-01-01T20:11:53.431Z,12.71
2023-01-01T20:14:56.444Z,12.50
2023-01-01T20:17:58.091Z,12.45
2023-01-01T20:21:27.077Z,12.33
2023-01-01T20:24:28.806Z,12.11
2023-01-01T20:27:30.603Z,11.96
2023-01-01T20:30:33.818Z,11.92
2023-01-01T20:33:35.551Z,12.01
2023-01-01T20:36:55.747Z,11.83
2023-01-01T20:39:57.428Z,11.76
2023-01-01T20:42:59.398Z,11.58
2023-01-01T20:46:02.453Z,11.53
2023-01-01T20:49:04.421Z,11.57
2023-01-01T20:52:06.391Z,11.49
2023-01-01T20:55:08.624Z,11.39
2023-01-01T20:58:10.321Z,11.53
2023-01-01T21:01:13.544Z,11.62
2023-01-01T21:04:15.453Z,12.00
2023-01-01T21:07:17.253Z,12.22
2023-01-01T21:10:19.504Z,12.21
2023-01-01T21:13:23.096Z,12.48
2023-01-01T21:16:31.228Z,12.62
2023-01-01T21:19:32.923Z,12.90
2023-01-01T21:22:34.602Z,13.41
2023-01-01T21:25:51.223Z,13.41
2023-01-01T21:28:53.470Z,13.77
2023-01-01T21:32:06.932Z,13.66
2023-01-01T21:35:15.961Z,13.84
2023-01-01T21:38:21.347Z,13.84
2023-01-01T21:41:24.855Z,14.27
2023-01-01T21:44:26.799Z,14.41
2023-01-01T21:47:29.761Z,14.46
2023-01-01T21:50:41.616Z,14.40
2023-01-01T21:53:43.263Z,14.50
2023-01-01T21:56:52.244Z,14.51
2023-01-01T21:59:54.857Z,14.46
2023-01-01T22:02:57.860Z,14.49
2023-01-01T22:05:59.760Z,14.68
2023-01-01T22:09:02.087Z,14.71
2023-01-01T22:12:18.908Z,14.81
2023-01-01T22:15:29.591Z,14.85
2023-01-01T22:18:38.367Z,14.82
2023-01-01T22:21:40.818Z,15.09
2023-01-01T22:24:44.079Z,15.17
2023-01-01T22:27:45.748Z,15.07
2023-01-01T22:30:50.197Z,14.94
2023-01-01T22:33:55.344Z,15.07
2023-01-01T22:36:57.181Z,15.14
2023-01-01T22:40:00.446Z,15.18
2023-01-01T22:43:05.088Z,15.18
2023-01-01T22:46:12.190Z,14.81
2023-01-01T22:49:19.487Z,14.94
2023-01-01T22:52:21.223Z,14.75
2023-01-01T22:55:23.398Z,14.76
2023-01-01T22:58:25.056Z,14.79
2023-01-01T23:01:26.883Z,14.61
2023-01-01T23:04:29.924Z,14.78
2023-01-01T23:07:36.588Z,14.66
2023-01-01T23:10:41.458Z,14.69
2023-01-01T23:14:06.155Z,14.73
2023-01-01T23:17:08.281Z,14.77
2023-01-01T23:20:11.407Z,14.65
2023-01-01T23:23:13.102Z,14.83
2023-01-01T23:26:14.878Z,14.69
2023-01-01T23:29:18.055Z,14.79
2023-01-01T23:32:20.253Z,14.71
2023-01-01T23:35:23.301Z,14.67
2023-01-01T23:38:25.709Z,14.64
2023-01-01T23:41:29.860Z,14.64
2023-01-01T23:44:31.678Z,14.65
2023-01-01T23:47:33.601Z,14.61
2023-01-01T23:50:36.987Z,14.58
2023-01-01T23:53:38.690Z,14.55
2023-01-01T23:56:40.525Z,14.49
2023-01-01T23:59:42.157Z,14.41
